Time;durP1;ratioP1;P1;durP2;ratioP2;P2;SDS_P1;SDS_P2;PMS_P1;PMS_P2;Temp;Humidity;BMP_temperature;BMP_pressure;BME280_temperature;BME280_humidity;BME280_pressure;Samples;Min_cycle;Max_cycle;Signal;HPM_P1;HPM_P2
2022/02/11 00:02:13;;;;;;;16.50;14.80;;;5.10;99.90;;;;;;4994769;28;20046;-75
2022/02/11 00:07:10;;;;;;;15.85;14.27;;;5.10;99.90;;;;;;4994056;28;20057;-74
2022/02/11 00:09:37;;;;;;;17.15;15.18;;;5.10;99.90;;;;;;4994823;28;20448;-75
2022/02/11 00:12:04;;;;;;;15.23;13.73;;;5.10;99.90;;;;;;4977518;28;20037;-75
2022/02/11 00:14:34;;;;;;;25.02;16.17;;;5.10;99.90;;;;;;4993778;28;20034;-75
2022/02/11 00:17:01;;;;;;;17.50;14.80;;;5.10;99.90;;;;;;4994433;28;20039;-75
2022/02/11 00:19:27;;;;;;;16.30;14.70;;;5.10;99.90;;;;;;4992304;28;20049;-75
2022/02/11 00:21:53;;;;;;;17.75;15.10;;;5.10;99.90;;;;;;5025540;28;20438;-75
2022/02/11 00:24:19;;;;;;;18.65;13.55;;;5.20;99.90;;;;;;4993813;28;20034;-75
2022/02/11 00:26:59;;;;;;;15.25;13.77;;;5.20;99.90;;;;;;4994406;28;20046;-75
2022/02/11 00:32:19;;;;;;;17.52;15.93;;;5.10;99.90;;;;;;4992909;28;20058;-75
2022/02/11 00:34:52;;;;;;;19.40;16.85;;;5.10;99.90;;;;;;4993747;28;20034;-76
2022/02/11 00:37:22;;;;;;;14.98;12.45;;;5.10;99.90;;;;;;4991990;28;20403;-76
2022/02/11 01:04:16;;;;;;;11.27;8.95;;;5.80;99.90;;;;;;4992560;28;20043;-77
2022/02/11 01:06:43;;;;;;;5.60;4.30;;;5.70;99.90;;;;;;4992228;28;20407;-75
2022/02/11 01:09:13;;;;;;;5.40;3.60;;;5.50;99.90;;;;;;4993227;28;20042;-77
2022/02/11 01:11:55;;;;;;;10.57;3.92;;;5.10;99.90;;;;;;4993624;28;20049;-76
2022/02/11 01:14:32;;;;;;;4.18;2.40;;;4.90;99.90;;;;;;4992796;28;20043;-75
2022/02/11 01:17:08;;;;;;;2.20;1.75;;;4.70;99.90;;;;;;4993388;28;20033;-77
2022/02/11 01:19:47;;;;;;;2.80;1.63;;;4.50;99.90;;;;;;4992394;28;20050;-76
2022/02/11 01:40:53;;;;;;;1.05;0.93;;;4.00;99.90;;;;;;4987423;28;20046;-75
2022/02/11 01:53:56;;;;;;;1.15;0.88;;;3.90;99.90;;;;;;4992581;28;20042;-76
2022/02/11 01:56:41;;;;;;;1.15;0.93;;;3.80;99.90;;;;;;4991878;28;20038;-76
2022/02/11 02:36:53;;;;;;;1.67;1.08;;;3.60;99.90;;;;;;4992011;28;20035;-77
2022/02/11 02:39:22;;;;;;;1.55;0.50;;;3.60;99.90;;;;;;4992052;28;20043;-76
2022/02/11 02:50:16;;;;;;;1.35;0.95;;;3.40;99.90;;;;;;4990811;28;20046;-76
2022/02/11 02:58:25;;;;;;;1.30;0.90;;;3.40;99.90;;;;;;4997134;28;20037;-77
2022/02/11 03:14:39;;;;;;;0.93;0.65;;;3.30;99.90;;;;;;4993912;28;20045;-77
2022/02/11 04:26:05;;;;;;;3.60;3.15;;;2.30;99.90;;;;;;4993478;28;20073;-73
2022/02/11 04:55:18;;;;;;;3.40;3.10;;;1.50;99.90;;;;;;4994004;28;20034;-74
2022/02/11 05:00:29;;;;;;;3.50;3.20;;;1.40;99.90;;;;;;4993139;28;20041;-74
2022/02/11 05:02:57;;;;;;;5.18;3.72;;;1.40;99.90;;;;;;4993498;28;20042;-73
2022/02/11 05:05:23;;;;;;;5.07;3.58;;;1.60;99.90;;;;;;4993190;28;20494;-76
2022/02/11 05:07:50;;;;;;;7.35;4.03;;;1.70;99.90;;;;;;4993123;28;20030;-73
2022/02/11 05:10:19;;;;;;;5.60;4.68;;;1.80;99.90;;;;;;4992213;28;20034;-74
2022/02/11 05:12:45;;;;;;;12.10;5.35;;;2.00;99.90;;;;;;4991181;28;20042;-73
2022/02/11 05:15:12;;;;;;;8.55;5.93;;;2.10;99.90;;;;;;4993539;28;20061;-73
2022/02/11 05:17:40;;;;;;;9.27;6.80;;;2.20;99.90;;;;;;4992040;28;20030;-74
2022/02/11 05:20:08;;;;;;;6.45;5.60;;;2.10;99.90;;;;;;4993235;28;20057;-74
2022/02/11 05:22:36;;;;;;;6.00;4.38;;;2.00;99.90;;;;;;4992333;28;20065;-73
2022/02/11 05:25:03;;;;;;;12.98;4.60;;;2.10;99.90;;;;;;4992409;28;20034;-73
2022/02/11 05:27:29;;;;;;;5.03;3.97;;;2.20;99.90;;;;;;4992205;28;20074;-73
2022/02/11 05:29:55;;;;;;;5.07;4.03;;;2.20;99.90;;;;;;4991688;28;20038;-74
2022/02/11 05:32:21;;;;;;;5.10;4.20;;;2.20;99.90;;;;;;4975245;28;20049;-74
2022/02/11 05:34:48;;;;;;;4.53;3.78;;;2.20;99.90;;;;;;4992311;28;20034;-74
2022/02/11 05:37:15;;;;;;;5.93;3.53;;;2.10;99.90;;;;;;4991672;28;20042;-73
2022/02/11 05:39:41;;;;;;;5.68;4.20;;;2.10;99.90;;;;;;4991148;28;20041;-73
2022/02/11 05:42:08;;;;;;;5.00;4.55;;;2.00;99.90;;;;;;4992637;28;20038;-74
2022/02/11 05:44:34;;;;;;;5.32;4.10;;;2.00;99.90;;;;;;4992245;28;20054;-74
2022/02/11 05:47:00;;;;;;;10.85;5.68;;;2.00;99.90;;;;;;4992729;28;20042;-76
2022/02/11 05:49:27;;;;;;;6.13;4.90;;;1.90;99.90;;;;;;4992126;28;20034;-76
2022/02/11 05:51:53;;;;;;;5.78;5.18;;;2.10;99.90;;;;;;4992490;28;20385;-73
2022/02/11 05:54:19;;;;;;;5.18;4.78;;;2.30;99.90;;;;;;4992863;28;20046;-75
2022/02/11 05:56:45;;;;;;;9.20;5.78;;;2.50;99.90;;;;;;4992034;28;20035;-74
2022/02/11 05:59:11;;;;;;;4.05;3.55;;;2.50;99.90;;;;;;4991704;28;20034;-74
2022/02/11 06:01:38;;;;;;;5.78;4.38;;;2.40;99.90;;;;;;4990383;28;20041;-74
2022/02/11 06:04:04;;;;;;;6.45;4.05;;;2.40;99.90;;;;;;4991992;28;20034;-82
2022/02/11 06:06:30;;;;;;;6.65;4.03;;;2.40;99.90;;;;;;4984305;28;20042;-81
2022/02/11 06:08:56;;;;;;;8.27;4.15;;;2.40;99.90;;;;;;4991852;28;20496;-82
2022/02/11 06:11:26;;;;;;;5.50;4.13;;;2.40;99.90;;;;;;4991134;28;20399;-83
2022/02/11 06:13:53;;;;;;;5.70;4.75;;;2.40;99.90;;;;;;4991990;28;20049;-84
2022/02/11 06:16:19;;;;;;;8.73;4.47;;;2.40;99.90;;;;;;4991081;28;20034;-84
2022/02/11 06:18:45;;;;;;;9.35;4.63;;;2.40;99.90;;;;;;4989355;28;20058;-84
2022/02/11 06:21:11;;;;;;;5.97;4.78;;;2.50;99.90;;;;;;4992208;28;20038;-83
2022/02/11 06:23:37;;;;;;;6.88;4.88;;;2.40;99.90;;;;;;4991254;28;20065;-84
2022/02/11 06:26:04;;;;;;;5.25;4.68;;;2.40;99.90;;;;;;4992417;28;20490;-83
2022/02/11 06:28:30;;;;;;;8.15;5.78;;;2.50;99.90;;;;;;4991359;28;20030;-81
2022/02/11 06:30:56;;;;;;;6.63;5.55;;;2.50;99.90;;;;;;4991114;28;20053;-84
2022/02/11 06:33:22;;;;;;;6.20;5.28;;;2.50;99.90;;;;;;4992254;28;20038;-84
2022/02/11 06:35:49;;;;;;;9.05;5.60;;;2.60;99.90;;;;;;4993415;28;20558;-83
2022/02/11 06:38:17;;;;;;;9.70;5.43;;;2.60;99.90;;;;;;4994558;28;20042;-83
2022/02/11 06:40:44;;;;;;;6.43;4.60;;;2.80;99.90;;;;;;4977638;28;20054;-84
2022/02/11 06:43:10;;;;;;;7.45;5.90;;;2.90;99.90;;;;;;4995865;28;20061;-83
2022/02/11 06:45:37;;;;;;;9.60;5.15;;;2.90;99.90;;;;;;4999610;28;20038;-85
2022/02/11 06:48:04;;;;;;;14.60;5.78;;;2.80;99.90;;;;;;4985610;28;20488;-83
2022/02/11 06:50:31;;;;;;;28.92;17.63;;;2.70;99.90;;;;;;4996699;28;20058;-81
2022/02/11 06:52:57;;;;;;;8.13;6.28;;;2.80;99.90;;;;;;4999457;28;20038;-83
2022/02/11 06:55:24;;;;;;;12.15;6.57;;;2.90;99.90;;;;;;5004575;28;20046;-83
2022/02/11 06:57:52;;;;;;;8.73;5.93;;;2.80;99.90;;;;;;4998883;28;20038;-82
2022/02/11 07:00:19;;;;;;;10.38;8.27;;;2.70;99.90;;;;;;4997555;28;20514;-82
2022/02/11 07:02:45;;;;;;;12.13;7.50;;;2.70;99.90;;;;;;5001803;28;20039;-82
2022/02/11 07:05:12;;;;;;;8.50;6.15;;;2.70;99.90;;;;;;5000484;28;20027;-83
2022/02/11 07:07:39;;;;;;;6.50;4.70;;;2.60;99.90;;;;;;4999924;28;20026;-82
2022/02/11 07:10:05;;;;;;;7.60;5.60;;;2.50;99.90;;;;;;4998661;28;20482;-83
2022/02/11 07:12:31;;;;;;;17.30;4.88;;;2.60;99.90;;;;;;4994650;28;20487;-81
2022/02/11 07:14:57;;;;;;;8.77;5.93;;;2.60;99.90;;;;;;4996623;28;20026;-83
2022/02/11 07:17:24;;;;;;;11.88;5.40;;;2.60;99.90;;;;;;4995449;28;20379;-84
2022/02/11 07:19:50;;;;;;;9.15;5.20;;;2.70;99.90;;;;;;4976794;28;20046;-83
2022/02/11 07:22:16;;;;;;;9.68;5.40;;;2.70;99.90;;;;;;4995246;28;20483;-80
2022/02/11 07:24:48;;;;;;;8.40;5.07;;;2.70;99.90;;;;;;4995185;28;20041;-80
2022/02/11 07:27:15;;;;;;;20.30;7.47;;;2.70;99.90;;;;;;4994318;28;20030;-80
2022/02/11 07:29:42;;;;;;;6.68;5.15;;;2.60;99.90;;;;;;4993705;28;20038;-80
2022/02/11 07:32:10;;;;;;;9.10;6.28;;;2.60;99.90;;;;;;4995306;28;20041;-80
2022/02/11 07:34:38;;;;;;;8.10;4.75;;;2.70;99.90;;;;;;4994656;28;20456;-80
2022/02/11 07:37:05;;;;;;;6.22;3.55;;;2.90;99.90;;;;;;4994321;28;20030;-82
2022/02/11 07:39:32;;;;;;;10.63;5.00;;;3.20;99.90;;;;;;4994834;28;20031;-81
2022/02/11 07:41:59;;;;;;;7.63;4.75;;;3.50;99.90;;;;;;4994974;28;20037;-82
2022/02/11 07:44:27;;;;;;;6.18;4.45;;;3.60;99.90;;;;;;4992643;28;20042;-82
2022/02/11 07:46:54;;;;;;;9.40;7.80;;;3.70;99.90;;;;;;5006431;28;20470;-81
2022/02/11 07:49:24;;;;;;;10.50;5.63;;;3.90;99.90;;;;;;5012999;28;20474;-81
2022/02/11 07:51:54;;;;;;;18.95;4.45;;;3.70;99.60;;;;;;5014570;28;20038;-81
2022/02/11 07:54:23;;;;;;;10.15;5.00;;;3.60;99.40;;;;;;4995958;28;20399;-81
2022/02/11 07:56:53;;;;;;;8.88;4.50;;;3.50;99.00;;;;;;4994652;28;20037;-81
2022/02/11 07:59:21;;;;;;;5.65;3.45;;;3.40;99.90;;;;;;4995629;28;20033;-83
2022/02/11 08:01:48;;;;;;;8.73;3.88;;;3.30;99.90;;;;;;4994701;28;20033;-82
2022/02/11 08:04:16;;;;;;;6.57;4.13;;;3.30;99.30;;;;;;4994860;28;20050;-82
2022/02/11 08:06:44;;;;;;;9.82;4.72;;;3.40;99.90;;;;;;4994349;28;20026;-82
2022/02/11 08:09:12;;;;;;;6.30;3.75;;;3.70;99.60;;;;;;4994880;28;20034;-82
2022/02/11 08:11:40;;;;;;;9.57;4.35;;;4.00;98.60;;;;;;4993082;28;20053;-83
2022/02/11 08:14:08;;;;;;;5.95;4.25;;;4.30;97.30;;;;;;4994793;28;20057;-84
2022/02/11 08:16:35;;;;;;;5.03;3.78;;;4.50;97.50;;;;;;4994470;28;20022;-82
2022/02/11 08:19:03;;;;;;;9.80;5.40;;;4.70;96.90;;;;;;4993200;28;20050;-82
2022/02/11 08:21:30;;;;;;;14.00;5.38;;;5.30;96.70;;;;;;4994744;28;20045;-82
2022/02/11 08:23:57;;;;;;;7.15;4.10;;;5.70;94.30;;;;;;4994453;28;20038;-82
2022/02/11 08:26:29;;;;;;;7.50;4.20;;;6.10;92.80;;;;;;4993761;28;20037;-82
2022/02/11 08:28:56;;;;;;;5.68;3.97;;;6.30;90.70;;;;;;4994249;28;20041;-82
2022/02/11 08:31:24;;;;;;;6.13;3.97;;;5.40;91.20;;;;;;4994815;28;20034;-82
2022/02/11 08:33:52;;;;;;;8.48;4.60;;;5.00;92.60;;;;;;4993814;28;20049;-82
2022/02/11 08:36:20;;;;;;;7.18;3.38;;;4.90;93.20;;;;;;4994523;28;20026;-82
2022/02/11 08:38:48;;;;;;;8.02;3.30;;;4.80;93.10;;;;;;4994040;28;20034;-82
2022/02/11 08:41:16;;;;;;;8.73;4.05;;;4.70;93.00;;;;;;4995176;28;20030;-82
2022/02/11 08:43:44;;;;;;;5.20;3.03;;;4.60;92.70;;;;;;4993975;28;20042;-81
2022/02/11 08:46:13;;;;;;;6.18;3.13;;;4.60;93.40;;;;;;4994981;28;20034;-81
2022/02/11 08:48:41;;;;;;;6.65;3.97;;;4.50;93.40;;;;;;4994047;28;20034;-81
2022/02/11 08:51:09;;;;;;;10.50;4.03;;;4.50;93.40;;;;;;4991035;28;20045;-82
2022/02/11 08:53:38;;;;;;;8.30;3.95;;;4.50;93.20;;;;;;4982542;28;20039;-81
2022/02/11 08:56:08;;;;;;;6.00;3.15;;;4.50;93.20;;;;;;4991594;28;20042;-80
2022/02/11 08:58:37;;;;;;;5.55;3.80;;;4.50;93.40;;;;;;4992011;28;20360;-79
2022/02/11 09:01:08;;;;;;;12.23;3.95;;;4.50;93.90;;;;;;4993145;28;20049;-79
2022/02/11 09:03:35;;;;;;;7.15;4.15;;;4.50;93.60;;;;;;4993848;28;20034;-80
2022/02/11 09:06:06;;;;;;;8.23;3.88;;;4.60;94.40;;;;;;4994779;28;20031;-81
2022/02/11 09:08:35;;;;;;;11.75;3.55;;;4.60;93.00;;;;;;4993949;28;20034;-80
2022/02/11 09:11:07;;;;;;;8.27;3.50;;;4.70;92.50;;;;;;4979157;28;20037;-80
2022/02/11 09:13:35;;;;;;;6.05;3.50;;;4.80;91.50;;;;;;4977653;28;20034;-80
2022/02/11 09:16:04;;;;;;;5.97;3.55;;;4.90;92.10;;;;;;4980334;28;20046;-80
2022/02/11 09:18:36;;;;;;;14.75;3.70;;;4.90;92.20;;;;;;4988756;28;20054;-81
2022/02/11 09:21:05;;;;;;;4.45;3.08;;;5.10;92.70;;;;;;4987191;28;20050;-80
2022/02/11 09:23:34;;;;;;;7.90;5.03;;;5.20;91.30;;;;;;4994423;28;20034;-80
2022/02/11 09:26:10;;;;;;;11.00;4.93;;;5.10;91.00;;;;;;5000982;28;20037;-80
2022/02/11 09:28:39;;;;;;;6.60;4.13;;;5.20;91.20;;;;;;5007517;28;20065;-80
2022/02/11 09:31:08;;;;;;;7.60;3.83;;;5.20;91.70;;;;;;4989723;28;20030;-79
2022/02/11 09:33:35;;;;;;;5.38;3.17;;;5.20;90.90;;;;;;4987914;28;20034;-77
2022/02/11 09:36:04;;;;;;;5.20;4.15;;;5.30;91.60;;;;;;5000682;28;20031;-74
2022/02/11 09:38:31;;;;;;;8.70;4.00;;;5.30;91.00;;;;;;4992140;28;20029;-75
2022/02/11 09:41:03;;;;;;;6.40;3.45;;;5.30;92.10;;;;;;4991402;28;20042;-74
2022/02/11 09:43:31;;;;;;;5.88;4.13;;;5.40;92.30;;;;;;4992601;28;20038;-74
2022/02/11 09:45:59;;;;;;;6.25;3.60;;;5.50;91.70;;;;;;4992369;28;20033;-75
2022/02/11 09:48:27;;;;;;;5.65;3.78;;;5.70;90.80;;;;;;4995282;28;20035;-74
2022/02/11 09:50:58;;;;;;;4.32;2.70;;;5.90;91.20;;;;;;4991290;28;20038;-74
2022/02/11 09:53:28;;;;;;;8.23;4.30;;;5.90;90.50;;;;;;4991409;28;20037;-75
2022/02/11 09:55:57;;;;;;;4.22;3.00;;;6.10;89.60;;;;;;4992083;28;20379;-75
2022/02/11 09:58:25;;;;;;;5.63;4.10;;;6.00;88.00;;;;;;5018239;28;20041;-75
2022/02/11 10:00:53;;;;;;;5.95;4.47;;;5.80;88.30;;;;;;4992179;28;20030;-75
2022/02/11 10:03:24;;;;;;;4.82;3.53;;;5.80;89.10;;;;;;4992087;28;20030;-75
2022/02/11 10:06:04;;;;;;;6.72;3.72;;;5.70;88.10;;;;;;4990350;28;20037;-75
2022/02/11 10:08:36;;;;;;;8.05;2.92;;;5.70;88.90;;;;;;4968841;28;20110;-75
2022/02/11 10:11:08;;;;;;;4.43;3.47;;;5.60;89.50;;;;;;4978210;28;20038;-75
2022/02/11 10:13:40;;;;;;;7.40;3.85;;;5.70;89.00;;;;;;4983834;28;20034;-74
2022/02/11 10:16:12;;;;;;;5.65;3.75;;;5.90;88.30;;;;;;4989170;28;20129;-75
2022/02/11 10:18:50;;;;;;;5.80;3.72;;;5.90;88.80;;;;;;4991937;28;20046;-76
2022/02/11 10:21:21;;;;;;;5.72;3.40;;;5.90;87.40;;;;;;4982513;28;20415;-74
2022/02/11 10:23:56;;;;;;;6.68;3.45;;;6.00;88.50;;;;;;4972879;28;20050;-75
2022/02/11 10:26:26;;;;;;;5.18;2.78;;;5.90;87.70;;;;;;4984086;28;20038;-75
2022/02/11 10:28:56;;;;;;;6.22;3.15;;;5.80;86.90;;;;;;4991465;28;20030;-75
2022/02/11 10:31:35;;;;;;;6.07;3.67;;;5.90;87.70;;;;;;4989962;28;20030;-75
2022/02/11 10:34:07;;;;;;;5.25;3.28;;;6.10;88.50;;;;;;4992457;28;20037;-75
2022/02/11 10:36:40;;;;;;;4.53;2.80;;;6.20;85.20;;;;;;4992529;28;20414;-75
2022/02/11 10:39:15;;;;;;;10.48;4.15;;;6.60;86.00;;;;;;4991222;28;20042;-75
2022/02/11 10:41:49;;;;;;;6.65;3.72;;;6.70;84.00;;;;;;4986469;28;20460;-75
2022/02/11 10:44:17;;;;;;;6.38;4.15;;;6.50;84.00;;;;;;4976890;28;20042;-75
2022/02/11 10:46:46;;;;;;;4.30;2.33;;;6.30;85.70;;;;;;4975124;28;20034;-75
2022/02/11 10:49:15;;;;;;;10.70;4.20;;;6.20;84.80;;;;;;4978112;28;20043;-75
2022/02/11 10:51:44;;;;;;;6.40;3.03;;;6.30;84.00;;;;;;4974644;28;20031;-75
2022/02/11 10:54:42;;;;;;;7.00;3.67;;;6.30;84.10;;;;;;4974486;28;20495;-76
2022/02/11 10:57:13;;;;;;;7.47;4.00;;;6.40;84.00;;;;;;4985346;28;20035;-76
2022/02/11 10:59:44;;;;;;;6.78;3.70;;;6.50;83.10;;;;;;4992975;28;20026;-75
2022/02/11 11:02:13;;;;;;;7.78;3.65;;;6.80;83.20;;;;;;4991648;28;20042;-76
2022/02/11 11:04:40;;;;;;;5.25;3.30;;;6.80;82.30;;;;;;4991410;28;20389;-75
2022/02/11 11:07:07;;;;;;;6.15;2.67;;;6.70;81.00;;;;;;5001721;28;20030;-75
2022/02/11 11:09:37;;;;;;;7.28;2.70;;;6.80;81.10;;;;;;4975183;28;20039;-76
2022/02/11 11:12:04;;;;;;;5.60;3.60;;;6.80;81.30;;;;;;4982334;28;20035;-76
2022/02/11 11:14:31;;;;;;;9.85;4.43;;;7.00;82.70;;;;;;4972893;28;20468;-75
2022/02/11 11:16:59;;;;;;;5.90;3.85;;;7.00;80.80;;;;;;4972640;28;20026;-74
2022/02/11 11:19:31;;;;;;;5.28;3.03;;;6.90;80.70;;;;;;4973090;28;20419;-75
2022/02/11 11:22:11;;;;;;;6.30;4.50;;;6.80;82.20;;;;;;4972713;28;20046;-76
2022/02/11 11:25:02;;;;;;;6.53;4.30;;;6.60;84.50;;;;;;4976343;28;20035;-75
2022/02/11 11:27:40;;;;;;;12.90;3.90;;;6.80;84.20;;;;;;4975169;28;20037;-75
2022/02/11 11:30:32;;;;;;;7.65;3.88;;;7.00;81.50;;;;;;4975951;28;20030;-75
2022/02/11 11:33:07;;;;;;;6.45;2.65;;;7.10;81.70;;;;;;4975723;28;20396;-75
2022/02/11 11:35:34;;;;;;;4.65;2.45;;;7.00;80.60;;;;;;4976476;28;20041;-75
2022/02/11 11:38:15;;;;;;;3.92;2.53;;;7.00;78.20;;;;;;4975878;28;20031;-75
2022/02/11 11:41:00;;;;;;;3.67;1.93;;;7.10;77.20;;;;;;4986406;28;20034;-75
2022/02/11 11:43:45;;;;;;;4.25;1.95;;;7.20;77.00;;;;;;4976829;28;20049;-75
2022/02/11 11:46:18;;;;;;;4.00;2.47;;;7.10;72.80;;;;;;4976807;28;20034;-75
2022/02/11 11:49:03;;;;;;;6.25;2.30;;;7.20;73.70;;;;;;4974339;28;20057;-76
2022/02/11 11:51:35;;;;;;;5.70;3.22;;;7.30;73.90;;;;;;4976167;28;20107;-75
2022/02/11 11:54:22;;;;;;;3.63;2.55;;;7.20;74.00;;;;;;4974087;28;20480;-74
2022/02/11 11:57:11;;;;;;;6.15;2.47;;;7.20;75.00;;;;;;4975463;28;20039;-76
2022/02/11 11:59:41;;;;;;;5.55;2.67;;;7.20;73.90;;;;;;4975403;28;20031;-75
2022/02/11 12:02:12;;;;;;;3.85;2.15;;;7.00;72.50;;;;;;4958088;28;20043;-75
2022/02/11 12:04:41;;;;;;;7.83;1.93;;;7.10;75.00;;;;;;4975862;28;20045;-74
2022/02/11 12:07:11;;;;;;;7.47;2.33;;;7.10;73.30;;;;;;4975356;28;20274;-75
2022/02/11 12:09:38;;;;;;;7.03;3.13;;;7.10;73.10;;;;;;4976242;28;20035;-75
2022/02/11 12:12:06;;;;;;;4.57;2.17;;;7.10;72.40;;;;;;4975457;28;20393;-75
2022/02/11 12:14:42;;;;;;;3.60;1.77;;;7.10;73.20;;;;;;4976699;28;20372;-74
2022/02/11 12:17:10;;;;;;;5.72;3.00;;;7.10;73.90;;;;;;4975503;28;20039;-75
2022/02/11 12:19:37;;;;;;;3.80;2.00;;;7.20;72.90;;;;;;4975879;28;20050;-75
2022/02/11 12:22:07;;;;;;;6.90;3.20;;;7.20;74.00;;;;;;4976169;28;20399;-75
2022/02/11 12:27:36;;;;;;;3.58;1.70;;;7.30;73.00;;;;;;4981118;28;20034;-76
2022/02/11 12:30:09;;;;;;;7.18;2.05;;;7.20;73.00;;;;;;4985022;28;20038;-75
2022/02/11 12:32:44;;;;;;;6.88;1.00;;;7.10;71.30;;;;;;4994652;28;20026;-75
2022/02/11 12:35:13;;;;;;;2.67;1.27;;;7.00;69.90;;;;;;4974102;28;20065;-75
2022/02/11 12:37:42;;;;;;;3.28;1.40;;;7.00;68.70;;;;;;4974845;28;20404;-76
2022/02/11 12:40:10;;;;;;;7.20;1.65;;;7.10;66.80;;;;;;4991659;28;20034;-77
2022/02/11 12:42:43;;;;;;;3.75;1.50;;;7.10;67.50;;;;;;4995313;28;20038;-76
2022/02/11 12:45:25;;;;;;;7.97;1.90;;;7.00;68.00;;;;;;4981099;28;20045;-76
2022/02/11 12:47:53;;;;;;;4.03;1.50;;;6.70;69.50;;;;;;4980718;28;20037;-77
2022/02/11 12:50:21;;;;;;;3.58;1.77;;;6.30;75.40;;;;;;4978582;28;20464;-76
2022/02/11 12:52:49;;;;;;;9.07;1.38;;;5.90;80.10;;;;;;4972618;28;20027;-79
2022/02/11 12:55:22;;;;;;;5.93;1.67;;;5.80;81.10;;;;;;4990450;28;20049;-76
2022/02/11 12:57:57;;;;;;;5.32;1.67;;;5.70;84.20;;;;;;4993163;28;20038;-78
2022/02/11 13:00:25;;;;;;;5.75;1.65;;;5.80;82.50;;;;;;4992496;28;20030;-76
2022/02/11 13:02:58;;;;;;;8.00;1.75;;;5.80;82.60;;;;;;4992795;28;20045;-77
2022/02/11 13:05:28;;;;;;;5.00;1.40;;;5.80;82.70;;;;;;4992887;28;20054;-76
2022/02/11 13:07:57;;;;;;;7.88;1.73;;;5.60;83.70;;;;;;4992369;28;20474;-76
2022/02/11 13:10:29;;;;;;;2.90;1.25;;;5.60;85.80;;;;;;4993156;28;20038;-75
2022/02/11 13:13:00;;;;;;;4.15;1.73;;;5.40;89.20;;;;;;4992898;28;20034;-75
2022/02/11 13:15:30;;;;;;;6.75;2.38;;;5.20;90.40;;;;;;4993519;28;20379;-75
2022/02/11 13:18:09;;;;;;;3.30;1.70;;;5.10;91.40;;;;;;4992557;28;20057;-76
2022/02/11 13:20:41;;;;;;;3.20;1.60;;;5.10;92.20;;;;;;4993249;28;20387;-76
2022/02/11 13:23:10;;;;;;;4.85;1.85;;;5.20;93.90;;;;;;4992042;28;20027;-76
2022/02/11 13:25:38;;;;;;;2.65;1.88;;;5.30;94.50;;;;;;4992919;28;20482;-76
2022/02/11 13:28:06;;;;;;;5.75;1.67;;;5.40;95.70;;;;;;4992145;28;20038;-76
2022/02/11 13:30:43;;;;;;;3.22;2.33;;;5.40;95.00;;;;;;4992691;28;20029;-77
2022/02/11 13:33:22;;;;;;;5.85;2.17;;;5.50;95.50;;;;;;4992508;28;20642;-76
2022/02/11 13:35:50;;;;;;;13.32;2.45;;;5.50;94.70;;;;;;4993705;28;20026;-76
2022/02/11 13:38:31;;;;;;;2.70;1.80;;;5.40;93.70;;;;;;4993189;28;20030;-76
2022/02/11 13:41:06;;;;;;;3.92;2.03;;;5.40;93.50;;;;;;4990475;28;20038;-76
2022/02/11 13:44:11;;;;;;;8.13;2.58;;;5.50;93.40;;;;;;4991035;28;20031;-77
2022/02/11 13:46:40;;;;;;;7.30;3.63;;;5.60;94.00;;;;;;4945383;28;20451;-76
2022/02/11 13:49:14;;;;;;;6.05;3.75;;;5.70;92.90;;;;;;4994302;28;20030;-76
2022/02/11 13:51:42;;;;;;;6.50;2.97;;;5.80;92.10;;;;;;4992093;28;20042;-76
2022/02/11 13:54:15;;;;;;;5.85;3.10;;;5.90;91.60;;;;;;4991734;28;20486;-76
2022/02/11 13:56:48;;;;;;;4.68;2.35;;;6.00;91.60;;;;;;4990269;28;20029;-76
2022/02/11 13:59:26;;;;;;;7.80;3.88;;;5.90;91.00;;;;;;4990667;28;20033;-76
2022/02/11 14:02:01;;;;;;;13.88;3.60;;;5.90;90.70;;;;;;4986538;28;20031;-78
2022/02/11 14:04:32;;;;;;;5.90;3.50;;;5.90;91.30;;;;;;4991217;28;20046;-76
2022/02/11 14:07:03;;;;;;;5.38;2.53;;;6.10;91.50;;;;;;4989039;28;20034;-76
2022/02/11 14:09:35;;;;;;;5.43;2.42;;;6.10;91.30;;;;;;4957239;28;20042;-76
2022/02/11 14:12:02;;;;;;;3.92;2.50;;;6.10;90.90;;;;;;4991432;28;20037;-76
2022/02/11 14:14:31;;;;;;;6.10;2.42;;;6.10;90.70;;;;;;4992597;28;20038;-76
2022/02/11 14:16:58;;;;;;;6.53;2.30;;;6.20;90.70;;;;;;4990462;28;20035;-74
2022/02/11 14:19:26;;;;;;;4.88;2.10;;;6.10;90.90;;;;;;4992482;28;20464;-76
2022/02/11 14:22:01;;;;;;;10.57;1.75;;;6.10;90.40;;;;;;4974535;28;20498;-78
2022/02/11 14:24:29;;;;;;;2.63;1.13;;;5.90;87.50;;;;;;4989963;28;20394;-77
2022/02/11 14:26:56;;;;;;;3.72;1.20;;;5.70;85.50;;;;;;4991523;28;20030;-78
2022/02/11 14:29:23;;;;;;;2.30;0.77;;;5.60;85.80;;;;;;4990671;28;20035;-77
2022/02/11 14:31:51;;;;;;;4.03;1.00;;;5.40;84.60;;;;;;4992416;28;20030;-76
2022/02/11 14:34:18;;;;;;;1.77;0.85;;;5.40;83.20;;;;;;4990109;28;20045;-76
2022/02/11 14:36:44;;;;;;;4.22;1.33;;;5.50;82.50;;;;;;4991198;28;20550;-77
2022/02/11 14:39:14;;;;;;;7.63;1.00;;;5.80;81.00;;;;;;4974542;28;20034;-77
2022/02/11 14:41:47;;;;;;;5.57;1.20;;;5.90;80.30;;;;;;4991212;28;20037;-77
2022/02/11 14:44:16;;;;;;;1.63;0.95;;;5.90;79.80;;;;;;4991577;28;20480;-77
2022/02/11 14:46:44;;;;;;;3.20;0.95;;;5.90;80.00;;;;;;4990781;28;20035;-77
2022/02/11 14:49:18;;;;;;;1.67;0.60;;;5.80;80.80;;;;;;4993115;28;20034;-77
2022/02/11 14:51:46;;;;;;;6.38;1.08;;;5.70;81.30;;;;;;5002033;28;20428;-77
2022/02/11 14:54:13;;;;;;;5.38;1.38;;;5.70;82.60;;;;;;4974423;28;20038;-78
2022/02/11 14:56:40;;;;;;;3.03;1.63;;;5.70;84.10;;;;;;4994314;28;20033;-76
2022/02/11 14:59:08;;;;;;;2.75;1.23;;;5.70;85.30;;;;;;4993941;28;20039;-77
2022/02/11 15:01:40;;;;;;;5.32;1.75;;;5.50;84.50;;;;;;4994944;28;20030;-76
2022/02/11 15:04:06;;;;;;;2.08;1.25;;;5.50;84.90;;;;;;4983987;28;20140;-77
2022/02/11 15:06:34;;;;;;;1.60;1.10;;;5.40;85.40;;;;;;4998135;28;20372;-77
2022/02/11 15:09:01;;;;;;;5.40;1.65;;;5.30;86.00;;;;;;4988962;28;20023;-78
2022/02/11 15:11:28;;;;;;;2.85;1.73;;;5.30;87.20;;;;;;4978557;28;20031;-76
2022/02/11 15:13:55;;;;;;;2.75;1.58;;;5.30;87.80;;;;;;4976168;28;20039;-77
2022/02/11 15:16:21;;;;;;;2.30;1.58;;;5.30;87.90;;;;;;4975696;28;20051;-75
2022/02/11 15:18:47;;;;;;;5.82;2.90;;;5.40;89.70;;;;;;4976675;28;20049;-76
2022/02/11 15:21:15;;;;;;;6.35;1.90;;;5.40;88.50;;;;;;4975818;28;20045;-76
2022/02/11 15:23:42;;;;;;;11.18;1.63;;;5.50;90.00;;;;;;4983873;28;20043;-77
2022/02/11 15:26:10;;;;;;;2.90;1.17;;;5.20;91.60;;;;;;4987004;28;20050;-76
2022/02/11 15:28:38;;;;;;;4.53;1.80;;;4.80;93.40;;;;;;4975817;28;20042;-76
2022/02/11 15:31:08;;;;;;;2.70;1.52;;;4.70;98.30;;;;;;4984175;28;20049;-76
2022/02/11 15:33:34;;;;;;;3.03;1.33;;;4.60;99.90;;;;;;4990840;28;20045;-76
2022/02/11 15:36:01;;;;;;;4.10;1.95;;;4.60;99.90;;;;;;4991853;28;20038;-77
2022/02/11 15:38:27;;;;;;;2.80;1.23;;;4.50;99.90;;;;;;4976429;28;20046;-76
2022/02/11 15:40:53;;;;;;;5.55;2.17;;;4.50;99.90;;;;;;4985689;28;20042;-76
2022/02/11 15:43:20;;;;;;;4.68;1.65;;;4.50;99.90;;;;;;4993078;28;20049;-76
2022/02/11 15:45:46;;;;;;;10.45;3.72;;;4.50;99.90;;;;;;4994426;28;20038;-76
2022/02/11 15:48:12;;;;;;;3.78;2.47;;;4.50;99.90;;;;;;4992539;28;20039;-76
2022/02/11 15:50:41;;;;;;;5.90;2.28;;;4.50;99.90;;;;;;4992628;28;20034;-76
2022/02/11 15:53:08;;;;;;;5.45;2.33;;;4.40;99.90;;;;;;4992433;28;20030;-77
2022/02/11 15:55:35;;;;;;;5.43;2.15;;;4.40;99.90;;;;;;4992348;28;20278;-77
2022/02/11 15:58:01;;;;;;;4.13;2.47;;;4.30;99.90;;;;;;4994118;28;20471;-78
2022/02/11 16:00:27;;;;;;;3.40;1.52;;;4.30;99.90;;;;;;4996322;28;20033;-77
2022/02/11 16:02:53;;;;;;;4.85;2.90;;;4.20;99.90;;;;;;4995272;28;20039;-81
2022/02/11 16:05:20;;;;;;;7.13;2.92;;;4.10;99.90;;;;;;4994072;28;20045;-76
2022/02/11 16:07:46;;;;;;;4.22;2.67;;;4.10;99.90;;;;;;4993676;28;20046;-77
2022/02/11 16:10:12;;;;;;;5.30;3.15;;;4.00;99.90;;;;;;4976700;28;20050;-77
2022/02/11 16:12:39;;;;;;;3.95;2.28;;;4.00;99.90;;;;;;4987789;28;20491;-76
2022/02/11 16:15:10;;;;;;;4.43;2.33;;;4.00;99.90;;;;;;4977330;28;20411;-76
2022/02/11 16:17:59;;;;;;;10.30;3.50;;;4.00;99.90;;;;;;4984786;28;20023;-85
2022/02/11 16:20:23;;;;;;;3.10;1.75;;;4.00;99.90;;;;;;4987212;28;20046;-86
2022/02/11 16:22:49;;;;;;;9.10;3.72;;;4.00;99.90;;;;;;4985594;28;20049;-85
2022/02/11 16:25:16;;;;;;;5.13;2.10;;;4.00;99.90;;;;;;4994963;28;20042;-84
2022/02/11 16:27:42;;;;;;;5.80;2.17;;;3.90;99.90;;;;;;4996279;28;20033;-85
2022/02/11 16:30:09;;;;;;;5.97;2.70;;;3.80;99.90;;;;;;4995096;28;20030;-85
2022/02/11 16:32:35;;;;;;;10.65;3.22;;;3.80;99.90;;;;;;4996722;28;20034;-85
2022/02/11 16:35:04;;;;;;;11.52;2.33;;;3.70;99.90;;;;;;4999192;28;20037;-80
2022/02/11 16:37:31;;;;;;;5.65;2.47;;;3.60;99.90;;;;;;4998414;28;20045;-84
2022/02/11 16:39:57;;;;;;;8.02;2.85;;;3.50;99.90;;;;;;4997928;28;20030;-83
2022/02/11 16:42:23;;;;;;;7.90;2.85;;;3.50;99.90;;;;;;4997690;28;20030;-85
2022/02/11 16:45:05;;;;;;;3.63;2.85;;;3.40;99.90;;;;;;4996814;28;20040;-85
2022/02/11 16:47:57;;;;;;;5.25;2.50;;;3.40;99.90;;;;;;4994155;28;20042;-86
2022/02/11 16:50:23;;;;;;;5.10;2.30;;;3.30;99.90;;;;;;4982660;28;20146;-85
2022/02/11 16:52:50;;;;;;;5.95;2.17;;;3.30;99.90;;;;;;4981697;28;20034;-87
2022/02/11 16:55:16;;;;;;;4.20;2.70;;;3.20;99.90;;;;;;4980175;28;20038;-85